New Bedford, MA

8:15 AM EDT on October 02, 2014 (GMT -0400)
New Bedford Northwest End | Change Station
CLOSE
Current Station
Personal Weather Station
Location: New Bedford, MA
Elevation: 165 ft
Nearby Weather Stations

Elev 165 ft 41.65 °N, 70.97 °W | Updated 14 minutes ago

Rain
Rain
57.0 °F
Feels Like 57.0 °F
N
2.2
Wind Variable Wind from North

Today
High -- | Low -- °F
--% Chance of Precip.
Yesterday
High -- | Low -- °F
Precip. -- in
6:41 AM 6:23 PM
First Quarter, 58% visible
Pressure 30.08 in
Visibility 10.0 miles
Clouds Mostly Cloudy 700 ft
Overcast 1600 ft
Dew Point 57 °F
Humidity 99%
Rainfall 0.18 in
Snow Depth Not available.
UV 0 out of 12
Pollen .70 out of 12
Ozone Good
PM2.5 Good
Flu Activity Not available.
METAR KEWB 021153Z 02010G16KT 10SM BKN007 OVC016 14/14 A3008 RMK AO2 RAE35 SLP185 P0001 60011 70127 T01440139 10150 20144 51005

More Conditions Fewer Conditions

Pressure 30.08 in
Visibility 10.0 miles
Clouds Mostly Cloudy 700 ft
Overcast 1600 ft
Dew Point 57 °F
Humidity 99%
Rainfall 0.18 in
Snow Depth Not available.
UV 0 out of 12
Pollen .70 out of 12
Ozone Good
PM2.5 Good
Flu Activity Not available.
METAR KEWB 021153Z 02010G16KT 10SM BKN007 OVC016 14/14 A3008 RMK AO2 RAE35 SLP185 P0001 60011 70127 T01440139 10150 20144 51005

More Conditions Fewer Conditions

10-Day Weather Forecast

Almanac

Astronomy

Oct. 02, 2014 Rise Set
Actual Time 6:41 AM EDT 6:23 PM EDT
Civil Twilight 6:13 AM EDT 6:51 PM EDT
Nautical Twilight 5:41 AM EDT 7:23 PM EDT
Astronomical Twilight 5:09 AM EDT 7:56 PM EDT
Moon 2:31 PM EDT No Moon Set
Length of Visible Light 12h 37m
Length of Day
11h 42m
Tomorrow will be 2m 46s shorter.
First Quarter, 58% of the Moon is Illuminated
Today
First Quarter
Oct 8
Full
Oct 15
Last Quarter
Oct 23
New
Oct 30
First Quarter

Today's Extremes

State Highs State Lows

Community

WunderPhotos

Upload Photos

1,758,223 photos uploaded!

WunderBlogs® & News

Nearby

Air Quality

  Air Quality AQ Index Pollutant
Yesterday Good
PM2.5
Current Good
PM2.5
Current Good
OZONE
Thursday Good
PM2.5
Thursday Good
OZONE

Snow Depth

Station Depth Elevation
No new snow has been reported.

Earthquake Activity

City Distance Mag. Time & Date
No recent earthquake activity has been reported nearby.
Minimum magnitude displayed is 2.5.

Coastal Water Temperatures

Place Temperature
Woods Hole, MA 66.0 °F
Fall River, MA 66.9 °F
Newport, RI 64.0 °F

Nearby Weather Stations